sensor_id;sensor_type;location;lat;lon;timestamp;pressure;altitude;pressure_sealevel;temperature;humidity
68656;BME280;55638;51.122;13.606;2022-08-03T00:01:17;100183.75;;;16.70;42.57
68656;BME280;55638;51.122;13.606;2022-08-03T00:02:49;100183.97;;;16.68;42.42
68656;BME280;55638;51.122;13.606;2022-08-03T00:04:21;100187.03;;;16.65;42.60
68656;BME280;55638;51.122;13.606;2022-08-03T00:06:04;100183.44;;;16.64;42.67
68656;BME280;55638;51.122;13.606;2022-08-03T00:07:36;100178.53;;;16.60;42.88
68656;BME280;55638;51.122;13.606;2022-08-03T00:09:09;100178.72;;;16.58;42.91
68656;BME280;55638;51.122;13.606;2022-08-03T00:10:41;100181.78;;;16.55;42.94
68656;BME280;55638;51.122;13.606;2022-08-03T00:12:13;100188.44;;;16.53;43.06
68656;BME280;55638;51.122;13.606;2022-08-03T00:13:45;100179.75;;;16.49;43.21
68656;BME280;55638;51.122;13.606;2022-08-03T00:15:17;100173.81;;;16.46;43.24
68656;BME280;55638;51.122;13.606;2022-08-03T00:16:48;100179.59;;;16.42;43.21
68656;BME280;55638;51.122;13.606;2022-08-03T00:18:21;100180.81;;;16.40;43.41
68656;BME280;55638;51.122;13.606;2022-08-03T00:19:53;100177.38;;;16.38;43.33
68656;BME280;55638;51.122;13.606;2022-08-03T00:21:25;100180.66;;;16.33;43.31
68656;BME280;55638;51.122;13.606;2022-08-03T00:22:56;100172.63;;;16.32;43.38
68656;BME280;55638;51.122;13.606;2022-08-03T00:24:28;100179.31;;;16.29;43.57
68656;BME280;55638;51.122;13.606;2022-08-03T00:26:01;100179.47;;;16.28;43.65
68656;BME280;55638;51.122;13.606;2022-08-03T00:27:33;100178.97;;;16.24;43.76
68656;BME280;55638;51.122;13.606;2022-08-03T00:29:06;100171.97;;;16.22;43.89
68656;BME280;55638;51.122;13.606;2022-08-03T00:30:38;100177.63;;;16.20;43.85
68656;BME280;55638;51.122;13.606;2022-08-03T00:32:12;100183.22;;;16.18;43.95
68656;BME280;55638;51.122;13.606;2022-08-03T00:33:44;100171.66;;;16.16;43.98
68656;BME280;55638;51.122;13.606;2022-08-03T00:35:33;100174.72;;;16.13;43.84
68656;BME280;55638;51.122;13.606;2022-08-03T00:37:20;100173.00;;;16.12;43.78
68656;BME280;55638;51.122;13.606;2022-08-03T00:39:11;100175.91;;;16.11;43.74
68656;BME280;55638;51.122;13.606;2022-08-03T00:40:43;100167.91;;;16.09;44.03
68656;BME280;55638;51.122;13.606;2022-08-03T00:42:14;100171.00;;;16.06;44.15
68656;BME280;55638;51.122;13.606;2022-08-03T00:43:47;100166.56;;;16.05;44.20
68656;BME280;55638;51.122;13.606;2022-08-03T00:45:21;100163.19;;;16.03;44.19
68656;BME280;55638;51.122;13.606;2022-08-03T00:46:53;100165.22;;;16.01;44.33
68656;BME280;55638;51.122;13.606;2022-08-03T00:48:25;100156.34;;;15.99;44.35
68656;BME280;55638;51.122;13.606;2022-08-03T00:50:04;100168.47;;;15.96;44.44
68656;BME280;55638;51.122;13.606;2022-08-03T00:51:36;100166.75;;;15.95;44.40
68656;BME280;55638;51.122;13.606;2022-08-03T00:53:10;100164.16;;;15.94;44.77
68656;BME280;55638;51.122;13.606;2022-08-03T00:54:43;100167.22;;;15.91;44.59
68656;BME280;55638;51.122;13.606;2022-08-03T00:56:15;100168.25;;;15.90;44.67
68656;BME280;55638;51.122;13.606;2022-08-03T00:57:48;100172.00;;;15.89;44.53
68656;BME280;55638;51.122;13.606;2022-08-03T00:59:20;100169.59;;;15.86;44.48
68656;BME280;55638;51.122;13.606;2022-08-03T01:00:51;100168.94;;;15.84;44.69
68656;BME280;55638;51.122;13.606;2022-08-03T01:02:23;100166.38;;;15.82;44.82
68656;BME280;55638;51.122;13.606;2022-08-03T01:03:55;100170.97;;;15.82;44.85
68656;BME280;55638;51.122;13.606;2022-08-03T01:05:27;100165.88;;;15.79;44.96
68656;BME280;55638;51.122;13.606;2022-08-03T01:07:13;100175.41;;;15.74;45.40
68656;BME280;55638;51.122;13.606;2022-08-03T01:08:56;100173.69;;;15.73;45.84
68656;BME280;55638;51.122;13.606;2022-08-03T01:12:15;100175.06;;;15.69;45.69
68656;BME280;55638;51.122;13.606;2022-08-03T01:14:18;100171.13;;;15.64;45.66
68656;BME280;55638;51.122;13.606;2022-08-03T01:17:59;100167.91;;;15.60;45.93
68656;BME280;55638;51.122;13.606;2022-08-03T01:19:44;100172.69;;;15.58;45.89
68656;BME280;55638;51.122;13.606;2022-08-03T01:21:23;100166.53;;;15.56;45.77
68656;BME280;55638;51.122;13.606;2022-08-03T01:23:26;100161.13;;;15.48;46.04
68656;BME280;55638;51.122;13.606;2022-08-03T01:28:42;100162.78;;;15.41;46.34
68656;BME280;55638;51.122;13.606;2022-08-03T01:30:18;100170.94;;;15.41;45.85
68656;BME280;55638;51.122;13.606;2022-08-03T01:32:02;100162.28;;;15.37;46.56
68656;BME280;55638;51.122;13.606;2022-08-03T01:34:01;100161.75;;;15.34;46.50
68656;BME280;55638;51.122;13.606;2022-08-03T01:35:44;100168.38;;;15.31;46.77
68656;BME280;55638;51.122;13.606;2022-08-03T01:37:24;100156.97;;;15.27;46.95
68656;BME280;55638;51.122;13.606;2022-08-03T01:39:00;100155.47;;;15.25;46.77
68656;BME280;55638;51.122;13.606;2022-08-03T01:40:35;100167.53;;;15.22;46.81
68656;BME280;55638;51.122;13.606;2022-08-03T01:42:10;100160.56;;;15.20;47.07
68656;BME280;55638;51.122;13.606;2022-08-03T01:43:43;100166.13;;;15.18;46.77
68656;BME280;55638;51.122;13.606;2022-08-03T01:45:39;100162.91;;;15.15;46.65
68656;BME280;55638;51.122;13.606;2022-08-03T01:47:11;100163.22;;;15.12;46.75
68656;BME280;55638;51.122;13.606;2022-08-03T01:48:45;100162.53;;;15.10;47.15
68656;BME280;55638;51.122;13.606;2022-08-03T01:50:20;100164.56;;;15.08;47.55
68656;BME280;55638;51.122;13.606;2022-08-03T01:51:54;100162.88;;;15.07;47.29
68656;BME280;55638;51.122;13.606;2022-08-03T01:53:37;100165.06;;;15.03;47.26
68656;BME280;55638;51.122;13.606;2022-08-03T01:55:11;100165.22;;;15.01;47.29
68656;BME280;55638;51.122;13.606;2022-08-03T01:56:44;100164.56;;;14.99;47.54
68656;BME280;55638;51.122;13.606;2022-08-03T01:58:18;100172.88;;;14.98;47.84
68656;BME280;55638;51.122;13.606;2022-08-03T01:59:51;100171.31;;;14.95;47.74
68656;BME280;55638;51.122;13.606;2022-08-03T02:01:26;100172.53;;;14.93;47.74
68656;BME280;55638;51.122;13.606;2022-08-03T02:03:19;100169.09;;;14.91;47.72
68656;BME280;55638;51.122;13.606;2022-08-03T02:04:53;100165.53;;;14.90;47.92
68656;BME280;55638;51.122;13.606;2022-08-03T02:06:29;100162.13;;;14.88;48.15
68656;BME280;55638;51.122;13.606;2022-08-03T02:08:24;100164.31;;;14.85;48.14
68656;BME280;55638;51.122;13.606;2022-08-03T02:09:57;100169.06;;;14.82;47.83
68656;BME280;55638;51.122;13.606;2022-08-03T02:11:30;100161.94;;;14.81;48.00
68656;BME280;55638;51.122;13.606;2022-08-03T02:13:06;100162.97;;;14.80;48.40
68656;BME280;55638;51.122;13.606;2022-08-03T02:14:40;100155.13;;;14.77;48.08
68656;BME280;55638;51.122;13.606;2022-08-03T02:16:12;100155.28;;;14.76;48.22
68656;BME280;55638;51.122;13.606;2022-08-03T02:17:46;100158.19;;;14.74;48.38
68656;BME280;55638;51.122;13.606;2022-08-03T02:19:18;100151.19;;;14.72;48.42
68656;BME280;55638;51.122;13.606;2022-08-03T02:20:50;100147.81;;;14.70;48.47
68656;BME280;55638;51.122;13.606;2022-08-03T02:22:23;100147.97;;;14.68;48.83
68656;BME280;55638;51.122;13.606;2022-08-03T02:23:55;100145.56;;;14.65;48.62
68656;BME280;55638;51.122;13.606;2022-08-03T02:25:27;100150.16;;;14.65;48.76
68656;BME280;55638;51.122;13.606;2022-08-03T02:27:04;100145.03;;;14.62;49.04
68656;BME280;55638;51.122;13.606;2022-08-03T02:28:39;100149.78;;;14.60;48.86
68656;BME280;55638;51.122;13.606;2022-08-03T02:30:12;100142.81;;;14.57;48.73
68656;BME280;55638;51.122;13.606;2022-08-03T02:31:45;100144.84;;;14.55;48.95
68656;BME280;55638;51.122;13.606;2022-08-03T02:33:24;100145.16;;;14.52;49.12
68656;BME280;55638;51.122;13.606;2022-08-03T02:34:58;100150.78;;;14.50;48.90
68656;BME280;55638;51.122;13.606;2022-08-03T02:36:34;100143.81;;;14.48;49.36
68656;BME280;55638;51.122;13.606;2022-08-03T02:38:09;100144.97;;;14.45;49.07
68656;BME280;55638;51.122;13.606;2022-08-03T02:39:42;100153.28;;;14.44;49.01
68656;BME280;55638;51.122;13.606;2022-08-03T02:41:17;100155.31;;;14.42;49.61
68656;BME280;55638;51.122;13.606;2022-08-03T02:42:54;100155.63;;;14.39;49.79
68656;BME280;55638;51.122;13.606;2022-08-03T02:44:30;100147.63;;;14.37;49.45
68656;BME280;55638;51.122;13.606;2022-08-03T02:46:04;100151.53;;;14.34;49.30
68656;BME280;55638;51.122;13.606;2022-08-03T02:47:37;100148.13;;;14.32;49.76
68656;BME280;55638;51.122;13.606;2022-08-03T02:49:26;100158.25;;;14.30;49.48
68656;BME280;55638;51.122;13.606;2022-08-03T02:51:19;100148.59;;;14.28;49.60
68656;BME280;55638;51.122;13.606;2022-08-03T02:52:52;100162.31;;;14.26;49.60
68656;BME280;55638;51.122;13.606;2022-08-03T02:54:25;100159.78;;;14.25;49.79
68656;BME280;55638;51.122;13.606;2022-08-03T02:56:01;100150.09;;;14.22;49.74
68656;BME280;55638;51.122;13.606;2022-08-03T02:57:34;100155.84;;;14.19;49.72
68656;BME280;55638;51.122;13.606;2022-08-03T02:59:07;100150.41;;;14.19;49.83
68656;BME280;55638;51.122;13.606;2022-08-03T03:00:40;100156.16;;;14.16;50.00
68656;BME280;55638;51.122;13.606;2022-08-03T03:02:14;100159.88;;;14.15;50.04
68656;BME280;55638;51.122;13.606;2022-08-03T03:03:49;100152.72;;;14.14;50.32
68656;BME280;55638;51.122;13.606;2022-08-03T03:05:24;100155.44;;;14.14;50.28
68656;BME280;55638;51.122;13.606;2022-08-03T03:07:18;100160.03;;;14.14;50.12
68656;BME280;55638;51.122;13.606;2022-08-03T03:08:51;100156.47;;;14.13;50.32
68656;BME280;55638;51.122;13.606;2022-08-03T03:10:30;100157.50;;;14.12;50.18
68656;BME280;55638;51.122;13.606;2022-08-03T03:12:02;100149.34;;;14.12;50.20
68656;BME280;55638;51.122;13.606;2022-08-03T03:13:35;100147.63;;;14.11;50.41
68656;BME280;55638;51.122;13.606;2022-08-03T03:15:07;100147.78;;;14.09;50.37
68656;BME280;55638;51.122;13.606;2022-08-03T03:16:40;100155.09;;;14.09;50.66
68656;BME280;55638;51.122;13.606;2022-08-03T03:18:13;100148.81;;;14.08;50.57
68656;BME280;55638;51.122;13.606;2022-08-03T03:19:52;100155.25;;;14.07;50.57
68656;BME280;55638;51.122;13.606;2022-08-03T03:21:26;100149.97;;;14.06;50.59
68656;BME280;55638;51.122;13.606;2022-08-03T03:22:58;100152.69;;;14.06;50.44
68656;BME280;55638;51.122;13.606;2022-08-03T03:24:31;100153.72;;;14.05;50.70
68656;BME280;55638;51.122;13.606;2022-08-03T03:26:06;100150.13;;;14.04;50.70
68656;BME280;55638;51.122;13.606;2022-08-03T03:27:38;100147.59;;;14.03;50.58
68656;BME280;55638;51.122;13.606;2022-08-03T03:29:10;100155.72;;;14.03;50.76
68656;BME280;55638;51.122;13.606;2022-08-03T03:30:42;100148.59;;;14.02;50.61
68656;BME280;55638;51.122;13.606;2022-08-03T03:32:14;100146.88;;;14.01;50.64
68656;BME280;55638;51.122;13.606;2022-08-03T03:33:46;100146.22;;;13.99;50.93
68656;BME280;55638;51.122;13.606;2022-08-03T03:35:18;100148.91;;;13.99;51.10
68656;BME280;55638;51.122;13.606;2022-08-03T03:36:50;100155.34;;;13.98;51.08
68656;BME280;55638;51.122;13.606;2022-08-03T03:38:22;100148.06;;;13.98;51.03
68656;BME280;55638;51.122;13.606;2022-08-03T03:39:53;100154.34;;;13.99;50.94
68656;BME280;55638;51.122;13.606;2022-08-03T03:41:25;100155.34;;;13.98;51.10
68656;BME280;55638;51.122;13.606;2022-08-03T03:43:08;100150.78;;;13.98;51.57
68656;BME280;55638;51.122;13.606;2022-08-03T03:44:40;100150.94;;;13.97;51.24
68656;BME280;55638;51.122;13.606;2022-08-03T03:46:12;100156.38;;;13.97;51.40
68656;BME280;55638;51.122;13.606;2022-08-03T03:47:43;100159.06;;;13.97;51.38
68656;BME280;55638;51.122;13.606;2022-08-03T03:49:15;100155.50;;;13.96;51.55
68656;BME280;55638;51.122;13.606;2022-08-03T03:50:48;100154.66;;;13.96;51.70
68656;BME280;55638;51.122;13.606;2022-08-03T03:52:20;100160.94;;;13.96;51.42
68656;BME280;55638;51.122;13.606;2022-08-03T03:53:56;100155.66;;;13.95;52.25
68656;BME280;55638;51.122;13.606;2022-08-03T03:55:29;100158.38;;;13.95;51.52
68656;BME280;55638;51.122;13.606;2022-08-03T03:57:00;100150.22;;;13.95;51.68
68656;BME280;55638;51.122;13.606;2022-08-03T03:58:32;100155.66;;;13.95;51.57
68656;BME280;55638;51.122;13.606;2022-08-03T04:00:05;100161.09;;;13.95;51.76
68656;BME280;55638;51.122;13.606;2022-08-03T04:01:37;100152.94;;;13.95;51.79
68656;BME280;55638;51.122;13.606;2022-08-03T04:03:10;100152.94;;;13.95;51.75
68656;BME280;55638;51.122;13.606;2022-08-03T04:04:42;100158.22;;;13.96;52.07
68656;BME280;55638;51.122;13.606;2022-08-03T04:06:32;100146.53;;;13.96;51.96
68656;BME280;55638;51.122;13.606;2022-08-03T04:08:22;100152.81;;;13.96;51.83
68656;BME280;55638;51.122;13.606;2022-08-03T04:10:20;100152.81;;;13.96;52.26
68656;BME280;55638;51.122;13.606;2022-08-03T04:12:12;100153.66;;;13.97;51.81
68656;BME280;55638;51.122;13.606;2022-08-03T04:14:07;100153.81;;;13.95;52.69
68656;BME280;55638;51.122;13.606;2022-08-03T04:15:40;100158.94;;;13.98;51.90
68656;BME280;55638;51.122;13.606;2022-08-03T04:17:12;100160.63;;;13.99;52.05
68656;BME280;55638;51.122;13.606;2022-08-03T04:18:50;100156.03;;;14.00;52.76
68656;BME280;55638;51.122;13.606;2022-08-03T04:20:25;100155.88;;;14.01;52.23
68656;BME280;55638;51.122;13.606;2022-08-03T04:22:00;100168.28;;;14.04;52.39
68656;BME280;55638;51.122;13.606;2022-08-03T04:23:34;100164.59;;;14.05;52.52
68656;BME280;55638;51.122;13.606;2022-08-03T04:25:09;100165.44;;;14.05;52.64
68656;BME280;55638;51.122;13.606;2022-08-03T04:26:45;100161.69;;;14.06;52.33
68656;BME280;55638;51.122;13.606;2022-08-03T04:28:23;100170.53;;;14.08;52.46
68656;BME280;55638;51.122;13.606;2022-08-03T04:30:04;100165.97;;;14.09;52.52
68656;BME280;55638;51.122;13.606;2022-08-03T04:31:37;100168.50;;;14.10;52.70
68656;BME280;55638;51.122;13.606;2022-08-03T04:33:10;100170.03;;;14.13;52.63
68656;BME280;55638;51.122;13.606;2022-08-03T04:34:43;100168.88;;;14.16;52.50
68656;BME280;55638;51.122;13.606;2022-08-03T04:36:16;100169.72;;;14.16;53.08
68656;BME280;55638;51.122;13.606;2022-08-03T04:37:51;100171.09;;;14.20;52.73
68656;BME280;55638;51.122;13.606;2022-08-03T04:39:26;100174.53;;;14.22;52.94
68656;BME280;55638;51.122;13.606;2022-08-03T04:41:00;100168.91;;;14.24;52.85
68656;BME280;55638;51.122;13.606;2022-08-03T04:42:32;100175.06;;;14.26;52.61
68656;BME280;55638;51.122;13.606;2022-08-03T04:44:05;100172.03;;;14.29;52.80
68656;BME280;55638;51.122;13.606;2022-08-03T04:45:38;100169.13;;;14.30;52.81
68656;BME280;55638;51.122;13.606;2022-08-03T04:47:11;100170.72;;;14.33;52.99
68656;BME280;55638;51.122;13.606;2022-08-03T04:48:43;100171.41;;;14.35;53.04
68656;BME280;55638;51.122;13.606;2022-08-03T04:50:16;100163.94;;;14.37;53.19
68656;BME280;55638;51.122;13.606;2022-08-03T04:52:07;100173.50;;;14.41;53.25
68656;BME280;55638;51.122;13.606;2022-08-03T04:53:42;100173.00;;;14.46;53.54
68656;BME280;55638;51.122;13.606;2022-08-03T04:55:26;100170.97;;;14.48;54.40
68656;BME280;55638;51.122;13.606;2022-08-03T04:56:58;100174.75;;;14.55;53.48
68656;BME280;55638;51.122;13.606;2022-08-03T04:58:30;100171.38;;;14.61;53.55
68656;BME280;55638;51.122;13.606;2022-08-03T05:00:03;100171.56;;;14.68;53.73
68656;BME280;55638;51.122;13.606;2022-08-03T05:01:36;100177.91;;;14.76;53.48
68656;BME280;55638;51.122;13.606;2022-08-03T05:03:08;100169.94;;;14.83;53.55
68656;BME280;55638;51.122;13.606;2022-08-03T05:04:54;100174.03;;;14.95;53.45
68656;BME280;55638;51.122;13.606;2022-08-03T05:06:27;100174.94;;;15.04;53.36
68656;BME280;55638;51.122;13.606;2022-08-03T05:07:58;100171.22;;;15.13;53.24
68656;BME280;55638;51.122;13.606;2022-08-03T05:09:33;100172.78;;;15.24;53.31
68656;BME280;55638;51.122;13.606;2022-08-03T05:11:23;100168.75;;;15.36;53.23
68656;BME280;55638;51.122;13.606;2022-08-03T05:12:55;100168.25;;;15.49;53.58
68656;BME280;55638;51.122;13.606;2022-08-03T05:14:26;100177.28;;;15.66;53.93
68656;BME280;55638;51.122;13.606;2022-08-03T05:15:58;100171.34;;;15.87;54.27
68656;BME280;55638;51.122;13.606;2022-08-03T05:17:30;100170.28;;;16.12;54.54
68656;BME280;55638;51.122;13.606;2022-08-03T05:19:04;100175.84;;;16.43;54.45
68656;BME280;55638;51.122;13.606;2022-08-03T05:20:37;100178.31;;;16.78;54.29
68656;BME280;55638;51.122;13.606;2022-08-03T05:22:09;100174.69;;;17.17;54.04
68656;BME280;55638;51.122;13.606;2022-08-03T05:23:41;100179.75;;;17.59;53.55
68656;BME280;55638;51.122;13.606;2022-08-03T05:25:13;100172.88;;;18.01;53.12
68656;BME280;55638;51.122;13.606;2022-08-03T05:26:51;100178.06;;;18.48;52.40
68656;BME280;55638;51.122;13.606;2022-08-03T05:28:22;100171.78;;;18.92;51.51
68656;BME280;55638;51.122;13.606;2022-08-03T05:29:54;100179.84;;;19.37;51.33
68656;BME280;55638;51.122;13.606;2022-08-03T05:31:25;100174.00;;;19.83;50.58
68656;BME280;55638;51.122;13.606;2022-08-03T05:32:57;100172.88;;;20.27;49.67
68656;BME280;55638;51.122;13.606;2022-08-03T05:34:30;100176.16;;;20.72;48.92
68656;BME280;55638;51.122;13.606;2022-08-03T05:36:02;100178.47;;;21.16;48.27
68656;BME280;55638;51.122;13.606;2022-08-03T05:37:35;100172.69;;;21.59;47.38
68656;BME280;55638;51.122;13.606;2022-08-03T05:39:07;100176.97;;;22.02;46.68
68656;BME280;55638;51.122;13.606;2022-08-03T05:40:38;100173.13;;;22.42;45.88
68656;BME280;55638;51.122;13.606;2022-08-03T05:42:27;100177.66;;;22.88;45.21
68656;BME280;55638;51.122;13.606;2022-08-03T05:43:59;100174.13;;;23.26;44.58
68656;BME280;55638;51.122;13.606;2022-08-03T05:45:30;100171.81;;;23.61;43.70
68656;BME280;55638;51.122;13.606;2022-08-03T05:47:02;100168.59;;;23.96;43.25
68656;BME280;55638;51.122;13.606;2022-08-03T05:48:34;100177.41;;;24.30;42.98
68656;BME280;55638;51.122;13.606;2022-08-03T05:50:05;100171.34;;;24.65;42.14
68656;BME280;55638;51.122;13.606;2022-08-03T05:51:37;100172.88;;;24.97;41.54
68656;BME280;55638;51.122;13.606;2022-08-03T05:53:09;100173.53;;;25.30;40.96
68656;BME280;55638;51.122;13.606;2022-08-03T05:54:40;100173.25;;;25.61;40.40
68656;BME280;55638;51.122;13.606;2022-08-03T05:56:28;100178.91;;;25.97;39.97
68656;BME280;55638;51.122;13.606;2022-08-03T05:57:59;100179.69;;;26.27;39.56
68656;BME280;55638;51.122;13.606;2022-08-03T05:59:33;100172.09;;;26.58;39.02
68656;BME280;55638;51.122;13.606;2022-08-03T06:01:09;100173.03;;;26.87;38.78
68656;BME280;55638;51.122;13.606;2022-08-03T06:02:41;100175.00;;;27.15;37.71
68656;BME280;55638;51.122;13.606;2022-08-03T06:04:13;100185.25;;;27.43;37.42
68656;BME280;55638;51.122;13.606;2022-08-03T06:05:44;100180.19;;;27.69;36.85
68656;BME280;55638;51.122;13.606;2022-08-03T06:07:31;100171.50;;;27.94;35.92
68656;BME280;55638;51.122;13.606;2022-08-03T06:09:02;100175.19;;;28.16;35.77
68656;BME280;55638;51.122;13.606;2022-08-03T06:10:34;100174.69;;;28.36;34.85
68656;BME280;55638;51.122;13.606;2022-08-03T06:12:08;100179.69;;;28.56;34.89
68656;BME280;55638;51.122;13.606;2022-08-03T06:13:45;100175.50;;;28.76;34.67
68656;BME280;55638;51.122;13.606;2022-08-03T06:15:16;100177.19;;;28.94;34.42
68656;BME280;55638;51.122;13.606;2022-08-03T06:16:49;100167.06;;;29.09;33.81
68656;BME280;55638;51.122;13.606;2022-08-03T06:18:20;100172.78;;;29.25;33.39
68656;BME280;55638;51.122;13.606;2022-08-03T06:19:52;100169.63;;;29.38;33.14
68656;BME280;55638;51.122;13.606;2022-08-03T06:21:24;100179.56;;;29.56;33.02
68656;BME280;55638;51.122;13.606;2022-08-03T06:22:57;100177.78;;;29.72;32.89
68656;BME280;55638;51.122;13.606;2022-08-03T06:24:31;100177.09;;;29.87;32.72
68656;BME280;55638;51.122;13.606;2022-08-03T06:26:04;100174.75;;;30.05;32.36
68656;BME280;55638;51.122;13.606;2022-08-03T06:27:36;100191.03;;;30.24;32.14
68656;BME280;55638;51.122;13.606;2022-08-03T06:29:10;100178.63;;;30.42;32.28
68656;BME280;55638;51.122;13.606;2022-08-03T06:30:43;100180.16;;;30.60;31.49
68656;BME280;55638;51.122;13.606;2022-08-03T06:32:15;100182.75;;;30.76;31.42
68656;BME280;55638;51.122;13.606;2022-08-03T06:33:47;100179.78;;;30.93;31.10
68656;BME280;55638;51.122;13.606;2022-08-03T06:35:39;100176.78;;;31.10;30.59
68656;BME280;55638;51.122;13.606;2022-08-03T06:37:15;100177.69;;;31.26;30.66
68656;BME280;55638;51.122;13.606;2022-08-03T06:38:46;100180.53;;;31.41;30.26
68656;BME280;55638;51.122;13.606;2022-08-03T06:40:22;100180.28;;;31.58;29.49
68656;BME280;55638;51.122;13.606;2022-08-03T06:42:00;100175.84;;;31.73;30.02
68656;BME280;55638;51.122;13.606;2022-08-03T06:43:31;100181.16;;;31.89;29.43
68656;BME280;55638;51.122;13.606;2022-08-03T06:45:07;100180.03;;;32.06;29.16
68656;BME280;55638;51.122;13.606;2022-08-03T06:46:39;100182.00;;;32.21;28.97
68656;BME280;55638;51.122;13.606;2022-08-03T06:48:12;100180.03;;;32.36;28.84
68656;BME280;55638;51.122;13.606;2022-08-03T06:49:43;100186.69;;;32.51;28.75
68656;BME280;55638;51.122;13.606;2022-08-03T06:51:35;100181.66;;;32.68;28.81
68656;BME280;55638;51.122;13.606;2022-08-03T06:53:27;100188.88;;;32.84;28.28
68656;BME280;55638;51.122;13.606;2022-08-03T06:54:58;100185.16;;;32.99;27.94
68656;BME280;55638;51.122;13.606;2022-08-03T06:56:30;100188.50;;;33.12;27.68
68656;BME280;55638;51.122;13.606;2022-08-03T06:58:01;100194.59;;;33.24;27.31
68656;BME280;55638;51.122;13.606;2022-08-03T06:59:34;100188.66;;;33.36;27.47
68656;BME280;55638;51.122;13.606;2022-08-03T07:01:25;100186.88;;;33.50;27.10
68656;BME280;55638;51.122;13.606;2022-08-03T07:02:57;100182.91;;;33.61;27.16
68656;BME280;55638;51.122;13.606;2022-08-03T07:04:29;100184.50;;;33.72;26.57
68656;BME280;55638;51.122;13.606;2022-08-03T07:06:00;100192.00;;;33.82;26.24
68656;BME280;55638;51.122;13.606;2022-08-03T07:07:34;100200.31;;;33.92;26.25
68656;BME280;55638;51.122;13.606;2022-08-03T07:09:06;100195.78;;;34.02;26.14
68656;BME280;55638;51.122;13.606;2022-08-03T07:10:37;100196.84;;;34.11;25.84
68656;BME280;55638;51.122;13.606;2022-08-03T07:12:09;100193.38;;;34.19;25.79
68656;BME280;55638;51.122;13.606;2022-08-03T07:13:43;100199.47;;;34.26;25.58
68656;BME280;55638;51.122;13.606;2022-08-03T07:15:15;100202.78;;;34.33;25.19
68656;BME280;55638;51.122;13.606;2022-08-03T07:17:08;100197.38;;;34.42;25.26
68656;BME280;55638;51.122;13.606;2022-08-03T07:18:42;100197.84;;;34.49;24.94
68656;BME280;55638;51.122;13.606;2022-08-03T07:20:14;100202.28;;;34.55;24.99
68656;BME280;55638;51.122;13.606;2022-08-03T07:21:47;100200.59;;;34.59;24.48
68656;BME280;55638;51.122;13.606;2022-08-03T07:23:19;100194.06;;;34.64;24.63
68656;BME280;55638;51.122;13.606;2022-08-03T07:24:51;100195.13;;;34.68;24.38
68656;BME280;55638;51.122;13.606;2022-08-03T07:26:22;100200.97;;;34.72;24.33
68656;BME280;55638;51.122;13.606;2022-08-03T07:27:54;100201.25;;;34.75;24.29
68656;BME280;55638;51.122;13.606;2022-08-03T07:29:26;100202.00;;;34.81;24.20
68656;BME280;55638;51.122;13.606;2022-08-03T07:30:58;100204.25;;;34.84;24.14
68656;BME280;55638;51.122;13.606;2022-08-03T07:32:30;100206.16;;;34.88;23.89
68656;BME280;55638;51.122;13.606;2022-08-03T07:34:02;100203.59;;;34.92;23.69
68656;BME280;55638;51.122;13.606;2022-08-03T07:35:33;100194.56;;;34.95;23.83
68656;BME280;55638;51.122;13.606;2022-08-03T07:37:05;100198.44;;;34.99;23.40
68656;BME280;55638;51.122;13.606;2022-08-03T07:38:37;100202.06;;;35.00;23.45
68656;BME280;55638;51.122;13.606;2022-08-03T07:40:09;100199.81;;;35.02;23.51
68656;BME280;55638;51.122;13.606;2022-08-03T07:41:40;100201.47;;;35.03;23.42
68656;BME280;55638;51.122;13.606;2022-08-03T07:43:12;100198.06;;;35.06;23.52
68656;BME280;55638;51.122;13.606;2022-08-03T07:44:44;100187.41;;;35.08;23.34
68656;BME280;55638;51.122;13.606;2022-08-03T07:46:15;100197.16;;;35.10;23.07
68656;BME280;55638;51.122;13.606;2022-08-03T07:47:47;100197.69;;;35.12;23.05
68656;BME280;55638;51.122;13.606;2022-08-03T07:49:24;100192.63;;;35.14;22.97
68656;BME280;55638;51.122;13.606;2022-08-03T07:50:55;100195.66;;;35.18;23.07
68656;BME280;55638;51.122;13.606;2022-08-03T07:52:27;100195.06;;;35.21;23.16
68656;BME280;55638;51.122;13.606;2022-08-03T07:54:17;100198.13;;;35.25;23.15
68656;BME280;55638;51.122;13.606;2022-08-03T07:55:50;100193.56;;;35.29;23.04
68656;BME280;55638;51.122;13.606;2022-08-03T07:57:21;100189.56;;;35.35;22.96
68656;BME280;55638;51.122;13.606;2022-08-03T07:58:54;100191.16;;;35.41;22.83
68656;BME280;55638;51.122;13.606;2022-08-03T08:00:26;100196.19;;;35.44;22.76
68656;BME280;55638;51.122;13.606;2022-08-03T08:01:57;100192.97;;;35.51;22.51
68656;BME280;55638;51.122;13.606;2022-08-03T08:03:29;100198.00;;;35.54;22.54
68656;BME280;55638;51.122;13.606;2022-08-03T08:05:21;100188.97;;;35.57;22.37
68656;BME280;55638;51.122;13.606;2022-08-03T08:06:53;100189.19;;;35.60;22.43
68656;BME280;55638;51.122;13.606;2022-08-03T08:08:24;100192.50;;;35.63;22.54
68656;BME280;55638;51.122;13.606;2022-08-03T08:09:56;100190.25;;;35.65;22.40
68656;BME280;55638;51.122;13.606;2022-08-03T08:11:28;100189.66;;;35.68;22.16
68656;BME280;55638;51.122;13.606;2022-08-03T08:13:00;100185.69;;;35.69;22.11
68656;BME280;55638;51.122;13.606;2022-08-03T08:14:32;100183.97;;;35.73;22.19
68656;BME280;55638;51.122;13.606;2022-08-03T08:16:04;100179.69;;;35.75;22.08
68656;BME280;55638;51.122;13.606;2022-08-03T08:17:50;100182.22;;;35.77;22.17
68656;BME280;55638;51.122;13.606;2022-08-03T08:19:22;100177.63;;;35.81;21.97